createdAt,value
2023-02-27T00:00:14.960Z,75.16
2023-02-27T00:02:46.590Z,75.25
2023-02-27T00:05:13.831Z,75.34
2023-02-27T00:07:41.278Z,75.31
2023-02-27T00:10:10.037Z,75.34
2023-02-27T00:12:38.526Z,75.78
2023-02-27T00:15:16.955Z,76.42
2023-02-27T00:17:44.178Z,76.52
2023-02-27T00:20:14.138Z,76.67
2023-02-27T00:22:41.916Z,76.56
2023-02-27T00:25:09.843Z,76.68
2023-02-27T00:27:37.154Z,76.48
2023-02-27T00:30:06.000Z,76.88
2023-02-27T00:32:33.348Z,77.12
2023-02-27T00:35:01.270Z,77.55
2023-02-27T00:37:28.430Z,76.86
2023-02-27T00:39:55.418Z,76.74
2023-02-27T00:42:22.422Z,76.67
2023-02-27T00:44:49.215Z,76.73
2023-02-27T00:47:16.326Z,76.84
2023-02-27T00:49:43.215Z,76.54
2023-02-27T00:52:10.117Z,76.65
2023-02-27T00:54:37.055Z,76.81
2023-02-27T00:57:04.013Z,76.53
2023-02-27T00:59:30.999Z,76.65
2023-02-27T01:01:58.248Z,76.43
2023-02-27T01:04:28.112Z,76.88
2023-02-27T01:06:54.933Z,77.54
2023-02-27T01:09:22.082Z,77.81
2023-02-27T01:11:48.964Z,78.15
2023-02-27T01:14:15.778Z,78.16
2023-02-27T01:16:45.653Z,78.35
2023-02-27T01:19:12.524Z,78.46
2023-02-27T01:21:42.090Z,78.69
2023-02-27T01:24:09.979Z,78.91
2023-02-27T01:26:37.214Z,78.79
2023-02-27T01:29:06.329Z,78.43
2023-02-27T01:31:33.697Z,78.21
2023-02-27T01:34:00.609Z,78.57
2023-02-27T01:36:27.540Z,77.86
2023-02-27T01:38:54.483Z,78.64
2023-02-27T01:41:21.330Z,78.56
2023-02-27T01:44:03.100Z,78.13
2023-02-27T01:46:31.080Z,78.22
2023-02-27T01:49:04.176Z,78.05
2023-02-27T01:51:34.593Z,77.37
2023-02-27T01:54:03.684Z,77.41
2023-02-27T01:56:32.474Z,77.29
2023-02-27T01:59:06.306Z,77.03
2023-02-27T02:01:34.963Z,77.18
2023-02-27T02:04:22.592Z,76.79
2023-02-27T02:06:54.594Z,77.15
2023-02-27T02:09:22.416Z,77.04
2023-02-27T02:11:49.551Z,77.45
2023-02-27T02:14:18.039Z,77.19
2023-02-27T02:17:03.168Z,77.07
2023-02-27T02:19:51.513Z,77.08
2023-02-27T02:22:36.534Z,77.23
2023-02-27T02:25:28.358Z,77.39
2023-02-27T02:28:13.835Z,77.17
2023-02-27T02:30:59.409Z,77.18
2023-02-27T02:33:26.148Z,77.68
2023-02-27T02:36:30.567Z,77.60
2023-02-27T02:39:09.211Z,77.75
2023-02-27T02:41:45.272Z,77.75
2023-02-27T02:44:14.976Z,77.56
2023-02-27T02:47:02.263Z,77.50
2023-02-27T02:49:41.074Z,77.72
2023-02-27T02:52:10.836Z,77.31
2023-02-27T02:54:54.547Z,77.52
2023-02-27T02:57:31.323Z,77.29
2023-02-27T03:00:15.598Z,77.30
2023-02-27T03:02:51.480Z,77.73
2023-02-27T03:05:34.744Z,77.59
2023-02-27T03:08:07.167Z,77.77
2023-02-27T03:10:36.391Z,78.21
2023-02-27T03:13:12.302Z,77.66
2023-02-27T03:15:48.273Z,77.98
2023-02-27T03:18:20.873Z,78.12
2023-02-27T03:20:56.028Z,78.10
2023-02-27T03:23:51.853Z,78.24
2023-02-27T03:26:23.262Z,78.71
2023-02-27T03:29:04.350Z,78.61
2023-02-27T03:31:52.476Z,78.93
2023-02-27T03:34:29.218Z,79.42
2023-02-27T03:37:39.629Z,79.12
2023-02-27T03:40:25.818Z,79.69
2023-02-27T03:43:07.849Z,80.11
2023-02-27T03:46:02.215Z,80.20
2023-02-27T03:48:29.600Z,81.07
2023-02-27T03:50:56.884Z,81.25
2023-02-27T03:53:40.054Z,81.25
2023-02-27T03:56:09.151Z,81.52
2023-02-27T03:58:36.366Z,81.36
2023-02-27T04:01:03.226Z,81.78
2023-02-27T04:03:34.421Z,81.68
2023-02-27T04:06:21.746Z,81.88
2023-02-27T04:09:03.394Z,82.06
2023-02-27T04:11:50.254Z,82.48
2023-02-27T04:14:24.809Z,82.77
2023-02-27T04:17:10.300Z,82.69
2023-02-27T04:19:49.290Z,83.56
2023-02-27T04:22:28.110Z,83.39
2023-02-27T04:25:16.866Z,83.68
2023-02-27T04:27:49.701Z,83.79
2023-02-27T04:30:28.672Z,84.08
2023-02-27T04:33:10.952Z,84.19
2023-02-27T04:35:51.072Z,84.26
2023-02-27T04:38:51.612Z,84.27
2023-02-27T04:41:22.328Z,84.44
2023-02-27T04:43:52.050Z,84.47
2023-02-27T04:46:22.700Z,84.61
2023-02-27T04:49:08.928Z,84.85
2023-02-27T04:51:44.877Z,85.04
2023-02-27T04:54:16.462Z,85.44
2023-02-27T04:56:53.507Z,85.60
2023-02-27T04:59:28.482Z,86.29
2023-02-27T05:02:30.543Z,85.95
2023-02-27T05:05:01.412Z,86.16
2023-02-27T05:07:37.565Z,86.30
2023-02-27T05:10:08.325Z,86.17
2023-02-27T05:12:46.411Z,85.92
2023-02-27T05:15:25.586Z,85.85
2023-02-27T05:18:13.615Z,85.66
2023-02-27T05:20:54.052Z,85.67
2023-02-27T05:23:45.853Z,85.25
2023-02-27T05:26:12.597Z,85.39
2023-02-27T05:28:46.785Z,85.03
2023-02-27T05:31:35.099Z,84.53
2023-02-27T05:34:22.620Z,78.10
2023-02-27T05:37:14.156Z,75.91
2023-02-27T05:39:42.996Z,78.68
2023-02-27T05:42:19.846Z,80.30
2023-02-27T05:44:54.895Z,83.38
2023-02-27T05:47:25.533Z,84.13
2023-02-27T05:50:02.144Z,84.30
2023-02-27T05:52:30.943Z,84.86
2023-02-27T05:55:24.550Z,84.58
2023-02-27T05:57:59.982Z,84.30
2023-02-27T06:00:39.188Z,84.70
2023-02-27T06:03:06.295Z,82.44
2023-02-27T06:05:33.774Z,82.18
2023-02-27T06:08:00.905Z,81.82
2023-02-27T06:10:27.984Z,82.13
2023-02-27T06:12:54.801Z,81.04
2023-02-27T06:15:23.061Z,81.59
2023-02-27T06:17:49.890Z,81.55
2023-02-27T06:20:16.960Z,81.06
2023-02-27T06:22:43.810Z,79.67
2023-02-27T06:25:10.674Z,80.10
2023-02-27T06:27:37.761Z,80.25
2023-02-27T06:30:07.462Z,79.65
2023-02-27T06:32:34.630Z,79.45
2023-02-27T06:35:01.694Z,80.20
2023-02-27T06:37:28.466Z,79.91
2023-02-27T06:39:55.285Z,79.98
2023-02-27T06:42:22.057Z,79.85
2023-02-27T06:44:48.893Z,80.03
2023-02-27T06:47:15.803Z,81.06
2023-02-27T06:49:42.603Z,81.09
2023-02-27T06:52:09.360Z,82.75
2023-02-27T06:54:36.150Z,82.69
2023-02-27T06:57:02.955Z,84.72
2023-02-27T06:59:29.725Z,86.32
2023-02-27T07:01:56.536Z,87.72
2023-02-27T07:04:23.403Z,89.54
2023-02-27T07:07:35.533Z,89.89
2023-02-27T07:09:37.334Z,90.55
2023-02-27T07:12:05.391Z,91.03
2023-02-27T07:14:32.565Z,93.46
2023-02-27T07:17:03.318Z,93.32
2023-02-27T07:19:35.953Z,91.66
2023-02-27T07:22:03.755Z,92.17
2023-02-27T07:24:30.471Z,91.01
2023-02-27T07:26:57.296Z,90.84
2023-02-27T07:29:24.067Z,91.19
2023-02-27T07:31:50.961Z,90.08
2023-02-27T07:34:17.920Z,90.19
2023-02-27T07:36:44.807Z,89.77
2023-02-27T07:39:14.910Z,90.76
2023-02-27T07:41:41.746Z,90.23
2023-02-27T07:44:16.420Z,89.12
2023-02-27T07:46:44.741Z,87.29
2023-02-27T07:49:11.735Z,86.03
2023-02-27T07:51:38.675Z,86.90
2023-02-27T07:54:05.491Z,88.00
2023-02-27T07:56:32.361Z,85.83
2023-02-27T07:58:59.232Z,85.95
2023-02-27T08:01:26.015Z,87.43
2023-02-27T08:03:53.134Z,88.18
2023-02-27T08:06:20.049Z,87.10
2023-02-27T08:08:46.884Z,87.33
2023-02-27T08:11:13.728Z,87.03
2023-02-27T08:14:00.571Z,85.92
2023-02-27T08:16:27.699Z,87.41
2023-02-27T08:18:54.682Z,85.37
2023-02-27T08:21:21.764Z,85.77
2023-02-27T08:23:48.641Z,86.38
2023-02-27T08:26:15.564Z,87.25
2023-02-27T08:28:42.787Z,85.65
2023-02-27T08:31:09.671Z,86.50
2023-02-27T08:33:36.477Z,86.79
2023-02-27T08:36:03.516Z,85.48
2023-02-27T08:38:30.403Z,86.59
2023-02-27T08:40:57.303Z,86.06
2023-02-27T08:43:24.252Z,86.31
2023-02-27T08:45:51.770Z,83.91
2023-02-27T08:48:18.829Z,83.81
2023-02-27T08:50:46.931Z,81.97
2023-02-27T08:53:14.098Z,82.67
2023-02-27T08:55:41.303Z,83.20
2023-02-27T08:58:08.630Z,82.49
2023-02-27T09:00:35.891Z,81.21
2023-02-27T09:03:02.780Z,80.33
2023-02-27T09:05:29.603Z,79.36
2023-02-27T09:07:56.360Z,79.74
2023-02-27T09:10:23.207Z,80.84
2023-02-27T09:12:50.061Z,79.75
2023-02-27T09:15:17.231Z,77.96
2023-02-27T09:17:44.213Z,78.31
2023-02-27T09:20:12.218Z,77.30
2023-02-27T09:22:39.466Z,78.45
2023-02-27T09:25:06.967Z,78.34
2023-02-27T09:27:34.728Z,79.26
2023-02-27T09:30:01.690Z,80.90
2023-02-27T09:32:28.843Z,79.24
2023-02-27T09:34:55.777Z,81.04
2023-02-27T09:37:25.039Z,79.91
2023-02-27T09:39:52.010Z,79.53
2023-02-27T09:42:25.586Z,78.95
2023-02-27T09:44:56.223Z,80.06
2023-02-27T09:47:25.995Z,80.72
2023-02-27T09:50:06.462Z,81.64
2023-02-27T09:52:36.463Z,81.76
2023-02-27T09:55:08.332Z,82.87
2023-02-27T09:57:56.474Z,83.49
2023-02-27T10:00:25.909Z,83.96
2023-02-27T10:03:10.287Z,84.31
2023-02-27T10:05:48.023Z,84.00
2023-02-27T10:08:41.619Z,84.80
2023-02-27T10:11:14.803Z,82.89
2023-02-27T10:13:56.324Z,83.30
2023-02-27T10:16:24.213Z,81.58
2023-02-27T10:19:01.626Z,81.12
2023-02-27T10:21:36.996Z,81.76
2023-02-27T10:24:31.703Z,81.90
2023-02-27T10:27:01.387Z,80.58
2023-02-27T10:29:30.116Z,80.21
2023-02-27T10:32:06.783Z,80.00
2023-02-27T10:34:34.873Z,80.32
2023-02-27T10:37:05.445Z,79.98
2023-02-27T10:39:54.310Z,79.58
2023-02-27T10:42:24.240Z,79.91
2023-02-27T10:45:16.367Z,80.76
2023-02-27T10:47:44.201Z,79.96
2023-02-27T10:50:44.691Z,79.44
2023-02-27T10:53:37.843Z,80.42
2023-02-27T10:56:08.477Z,80.01
2023-02-27T10:58:37.240Z,80.64
2023-02-27T11:01:12.964Z,78.72
2023-02-27T11:03:43.110Z,79.13
2023-02-27T11:06:24.702Z,78.38
2023-02-27T11:09:10.109Z,78.72
2023-02-27T11:11:37.969Z,79.15
2023-02-27T11:14:28.082Z,77.92
2023-02-27T11:16:57.745Z,77.13
2023-02-27T11:19:29.947Z,78.28
2023-02-27T11:22:16.308Z,77.96
2023-02-27T11:24:43.359Z,78.25
2023-02-27T11:27:29.081Z,78.61
2023-02-27T11:30:00.364Z,77.95
2023-02-27T11:32:37.268Z,78.47
2023-02-27T11:35:05.667Z,77.41
2023-02-27T11:37:36.798Z,77.89
2023-02-27T11:40:15.600Z,77.81
2023-02-27T11:42:47.600Z,77.01
2023-02-27T11:46:04.860Z,76.12
2023-02-27T11:49:02.986Z,75.19
2023-02-27T11:51:32.951Z,74.05
2023-02-27T11:54:30.020Z,74.51
2023-02-27T11:57:04.375Z,74.50
2023-02-27T11:59:47.962Z,73.78
2023-02-27T12:02:22.524Z,72.99
2023-02-27T12:04:55.459Z,72.68
2023-02-27T12:07:28.073Z,71.80
2023-02-27T12:10:04.703Z,71.32
2023-02-27T12:12:40.974Z,70.78
2023-02-27T12:15:30.089Z,71.45
2023-02-27T12:18:05.441Z,71.79
2023-02-27T12:20:37.920Z,71.77
2023-02-27T12:23:31.493Z,71.55
2023-02-27T12:26:08.399Z,71.56
2023-02-27T12:29:04.875Z,71.73
2023-02-27T12:31:36.422Z,71.72
2023-02-27T12:34:15.099Z,72.55
2023-02-27T12:36:42.115Z,71.79
2023-02-27T12:39:23.766Z,72.14
2023-02-27T12:42:18.735Z,72.33
2023-02-27T12:45:17.034Z,71.53
2023-02-27T12:47:55.810Z,71.24
2023-02-27T12:50:25.517Z,71.44
2023-02-27T12:53:23.361Z,71.52
2023-02-27T12:55:59.794Z,71.15
2023-02-27T12:58:40.345Z,70.41
2023-02-27T13:01:26.646Z,70.64
2023-02-27T13:04:16.964Z,69.63
2023-02-27T13:06:55.489Z,68.13
2023-02-27T13:09:32.610Z,68.09
2023-02-27T13:12:21.122Z,67.51
2023-02-27T13:14:55.406Z,67.43
2023-02-27T13:17:37.752Z,66.98
2023-02-27T13:20:40.178Z,65.90
2023-02-27T13:23:24.460Z,66.80
2023-02-27T13:25:54.984Z,65.80
2023-02-27T13:28:28.090Z,66.06
2023-02-27T13:31:12.687Z,65.52
2023-02-27T13:33:45.545Z,65.97
2023-02-27T13:36:39.119Z,66.35
2023-02-27T13:39:40.946Z,67.29
2023-02-27T13:42:26.561Z,67.06
2023-02-27T13:44:58.933Z,67.42
2023-02-27T13:47:48.837Z,67.53
2023-02-27T13:50:18.749Z,68.28
2023-02-27T13:52:46.981Z,67.81
2023-02-27T13:55:34.877Z,68.39
2023-02-27T13:58:03.931Z,68.67
2023-02-27T14:00:34.164Z,68.16
2023-02-27T14:03:32.193Z,67.78
2023-02-27T14:06:03.788Z,67.56
2023-02-27T14:08:46.950Z,67.22
2023-02-27T14:11:22.781Z,68.04
2023-02-27T14:13:54.680Z,68.53
2023-02-27T14:16:44.107Z,68.41
2023-02-27T14:19:17.271Z,68.24
2023-02-27T14:21:54.459Z,68.57
2023-02-27T14:25:01.088Z,68.03
2023-02-27T14:27:39.341Z,68.07
2023-02-27T14:30:10.158Z,67.51
2023-02-27T14:32:37.959Z,66.94
2023-02-27T14:35:06.602Z,67.79
2023-02-27T14:37:36.433Z,68.25
2023-02-27T14:40:06.284Z,68.28
2023-02-27T14:42:51.228Z,68.38
2023-02-27T14:45:25.161Z,68.47
2023-02-27T14:47:53.194Z,68.49
2023-02-27T14:50:34.154Z,68.57
2023-02-27T14:53:06.990Z,69.01
2023-02-27T14:55:35.981Z,68.38
2023-02-27T14:58:19.076Z,68.41
2023-02-27T15:01:02.035Z,67.97
2023-02-27T15:03:59.275Z,67.99
2023-02-27T15:06:42.813Z,68.52
2023-02-27T15:09:23.930Z,68.31
2023-02-27T15:12:03.605Z,68.17
2023-02-27T15:14:37.621Z,68.19
2023-02-27T15:17:14.816Z,68.25
2023-02-27T15:19:51.273Z,67.54
2023-02-27T15:22:37.675Z,67.12
2023-02-27T15:25:08.096Z,67.79
2023-02-27T15:27:37.630Z,67.56
2023-02-27T15:30:05.267Z,67.69
2023-02-27T15:32:35.861Z,67.87
2023-02-27T15:35:12.666Z,68.11
2023-02-27T15:37:40.381Z,67.61
2023-02-27T15:40:16.493Z,68.02
2023-02-27T15:42:44.751Z,67.78
2023-02-27T15:45:19.867Z,67.80
2023-02-27T15:47:47.621Z,68.25
2023-02-27T15:50:17.278Z,68.38
2023-02-27T15:52:52.702Z,68.38
2023-02-27T15:55:27.398Z,68.52
2023-02-27T15:58:02.811Z,68.69
2023-02-27T16:00:34.308Z,69.05
2023-02-27T16:03:01.402Z,69.13
2023-02-27T16:05:34.628Z,69.62
2023-02-27T16:08:02.946Z,69.59
2023-02-27T16:10:37.824Z,69.62
2023-02-27T16:13:41.202Z,69.62
2023-02-27T16:16:35.409Z,69.82
2023-02-27T16:19:28.213Z,70.18
2023-02-27T16:22:07.201Z,70.65
2023-02-27T16:24:34.269Z,71.22
2023-02-27T16:27:01.944Z,71.45
2023-02-27T16:29:34.530Z,72.25
2023-02-27T16:32:01.923Z,72.23
2023-02-27T16:34:44.608Z,72.19
2023-02-27T16:37:24.764Z,72.50
2023-02-27T16:39:52.366Z,73.29
2023-02-27T16:42:19.370Z,73.82
2023-02-27T16:44:46.463Z,74.03
2023-02-27T16:47:13.399Z,74.01
2023-02-27T16:49:40.565Z,73.65
2023-02-27T16:52:11.061Z,74.40
2023-02-27T16:54:37.993Z,73.69
2023-02-27T16:57:05.140Z,74.44
2023-02-27T16:59:39.181Z,74.74
2023-02-27T17:02:11.230Z,76.15
2023-02-27T17:04:38.049Z,77.41
2023-02-27T17:07:06.654Z,77.89
2023-02-27T17:09:33.631Z,78.91
2023-02-27T17:12:00.434Z,79.68
2023-02-27T17:14:27.347Z,80.47
2023-02-27T17:16:54.214Z,81.50
2023-02-27T17:19:22.263Z,81.58
2023-02-27T17:21:49.283Z,81.92
2023-02-27T17:24:16.346Z,81.56
2023-02-27T17:26:43.303Z,81.96
2023-02-27T17:29:10.253Z,83.01
2023-02-27T17:31:37.200Z,84.54
2023-02-27T17:34:05.545Z,87.51
2023-02-27T17:36:32.536Z,89.46
2023-02-27T17:39:02.830Z,90.79
2023-02-27T17:41:31.521Z,90.93
2023-02-27T17:43:59.574Z,92.29
2023-02-27T17:46:28.378Z,94.24
2023-02-27T17:49:00.021Z,95.43
2023-02-27T17:51:28.084Z,97.50
2023-02-27T17:53:55.456Z,98.23
2023-02-27T17:56:22.384Z,99.13
2023-02-27T17:58:49.601Z,100.00
2023-02-27T18:01:21.554Z,100.00
2023-02-27T18:03:49.485Z,100.00
2023-02-27T18:06:17.083Z,100.00
2023-02-27T18:08:44.192Z,100.00
2023-02-27T18:11:12.851Z,100.00
2023-02-27T18:13:40.793Z,100.00
2023-02-27T18:22:33.662Z,100.00
2023-02-27T18:25:01.041Z,100.00
2023-02-27T18:27:28.180Z,100.00
2023-02-27T18:29:57.739Z,100.00
2023-02-27T18:32:25.070Z,100.00
2023-02-27T18:34:53.507Z,100.00
2023-02-27T18:37:20.595Z,100.00
2023-02-27T18:39:47.846Z,100.00
2023-02-27T18:42:14.603Z,100.00
2023-02-27T18:44:42.175Z,100.00
2023-02-27T18:47:09.772Z,100.00
2023-02-27T18:49:36.786Z,100.00
2023-02-27T18:52:04.033Z,100.00
2023-02-27T18:54:31.063Z,100.00
2023-02-27T18:56:57.856Z,100.00
2023-02-27T18:59:24.912Z,100.00
2023-02-27T19:01:51.772Z,100.00
2023-02-27T19:04:18.660Z,100.00
2023-02-27T19:06:45.683Z,100.00
2023-02-27T19:09:16.257Z,100.00
2023-02-27T19:11:47.236Z,100.00
2023-02-27T19:14:16.080Z,100.00
2023-02-27T19:16:43.474Z,100.00
2023-02-27T19:19:12.034Z,100.00
2023-02-27T19:21:39.591Z,100.00
2023-02-27T19:24:07.663Z,100.00
2023-02-27T19:26:34.817Z,100.00
2023-02-27T19:29:02.135Z,100.00
2023-02-27T19:31:29.158Z,100.00
2023-02-27T19:33:56.335Z,100.00
2023-02-27T19:36:25.305Z,100.00
2023-02-27T19:38:52.829Z,100.00
2023-02-27T19:41:20.794Z,100.00
2023-02-27T19:43:48.744Z,100.00
2023-02-27T19:46:18.783Z,100.00
2023-02-27T19:48:46.548Z,100.00
2023-02-27T19:51:14.820Z,100.00
2023-02-27T19:53:45.858Z,100.00
2023-02-27T19:56:17.510Z,100.00
2023-02-27T19:58:45.936Z,100.00
2023-02-27T20:01:12.939Z,100.00
2023-02-27T20:03:43.751Z,100.00
2023-02-27T20:06:21.768Z,100.00
2023-02-27T20:08:49.028Z,100.00
2023-02-27T20:11:17.593Z,100.00
2023-02-27T20:13:45.212Z,100.00
2023-02-27T20:16:14.767Z,100.00
2023-02-27T20:18:42.762Z,100.00
2023-02-27T20:21:16.528Z,100.00
2023-02-27T20:23:46.287Z,100.00
2023-02-27T20:26:17.073Z,100.00
2023-02-27T20:28:45.098Z,100.00
2023-02-27T20:31:13.138Z,100.00
2023-02-27T20:33:41.026Z,100.00
2023-02-27T20:36:10.116Z,100.00
2023-02-27T20:38:39.219Z,100.00
2023-02-27T20:41:07.945Z,100.00
2023-02-27T20:43:37.644Z,100.00
2023-02-27T20:46:07.379Z,100.00
2023-02-27T20:48:34.671Z,100.00
2023-02-27T20:51:06.434Z,100.00
2023-02-27T20:53:35.344Z,100.00
2023-02-27T20:56:02.340Z,100.00
2023-02-27T20:58:29.371Z,100.00
2023-02-27T21:00:56.187Z,100.00
2023-02-27T21:03:23.226Z,100.00
2023-02-27T21:05:51.407Z,100.00
2023-02-27T21:08:18.838Z,100.00
2023-02-27T21:10:51.053Z,100.00
2023-02-27T21:13:18.853Z,100.00
2023-02-27T21:15:46.516Z,100.00
2023-02-27T21:18:13.752Z,100.00
2023-02-27T21:20:44.732Z,100.00
2023-02-27T21:23:12.178Z,100.00
2023-02-27T21:25:43.183Z,100.00
2023-02-27T21:28:11.148Z,100.00
2023-02-27T21:30:38.167Z,100.00
2023-02-27T21:33:05.334Z,100.00
2023-02-27T21:35:32.464Z,100.00
2023-02-27T21:37:59.724Z,100.00
2023-02-27T21:40:26.535Z,100.00
2023-02-27T21:42:53.785Z,100.00
2023-02-27T21:45:21.218Z,100.00
2023-02-27T21:47:48.517Z,100.00
2023-02-27T21:50:15.528Z,100.00
2023-02-27T21:52:43.460Z,100.00
2023-02-27T21:55:11.552Z,100.00
2023-02-27T21:57:40.171Z,100.00
2023-02-27T22:00:11.495Z,100.00
2023-02-27T22:02:39.476Z,100.00
2023-02-27T22:05:07.121Z,100.00
2023-02-27T22:07:34.019Z,100.00
2023-02-27T22:10:00.822Z,100.00
2023-02-27T22:12:27.825Z,100.00
2023-02-27T22:14:55.002Z,100.00
2023-02-27T22:17:21.894Z,100.00
2023-02-27T22:19:48.696Z,100.00
2023-02-27T22:22:15.528Z,100.00
2023-02-27T22:24:42.363Z,100.00
2023-02-27T22:27:09.453Z,100.00
2023-02-27T22:29:38.538Z,100.00
2023-02-27T22:32:06.653Z,100.00
2023-02-27T22:34:33.482Z,100.00
2023-02-27T22:37:00.619Z,100.00
2023-02-27T22:39:27.361Z,100.00
2023-02-27T22:41:56.484Z,99.76
2023-02-27T22:44:23.880Z,100.00
2023-02-27T22:46:50.902Z,100.00
2023-02-27T22:49:20.934Z,100.00
2023-02-27T22:51:50.767Z,100.00
2023-02-27T22:54:20.386Z,100.00
2023-02-27T22:56:50.237Z,100.00
2023-02-27T22:59:17.168Z,100.00
2023-02-27T23:01:44.048Z,100.00
2023-02-27T23:04:12.203Z,100.00
2023-02-27T23:06:40.664Z,100.00
2023-02-27T23:09:11.284Z,100.00
2023-02-27T23:11:38.416Z,100.00
2023-02-27T23:14:05.379Z,100.00
2023-02-27T23:16:32.511Z,100.00
2023-02-27T23:19:00.340Z,100.00
2023-02-27T23:21:34.500Z,100.00
2023-02-27T23:24:06.949Z,100.00
2023-02-27T23:26:38.737Z,100.00
2023-02-27T23:29:06.875Z,100.00
2023-02-27T23:31:35.813Z,100.00
2023-02-27T23:34:06.049Z,100.00
2023-02-27T23:36:34.893Z,100.00
2023-02-27T23:39:05.667Z,100.00
2023-02-27T23:41:33.150Z,100.00
2023-02-27T23:44:18.650Z,100.00
2023-02-27T23:46:45.498Z,100.00
2023-02-27T23:49:12.415Z,100.00
2023-02-27T23:51:39.705Z,100.00
2023-02-27T23:54:06.549Z,100.00
2023-02-27T23:56:34.300Z,100.00
2023-02-27T23:59:03.831Z,100.00
